sensor_id;sensor_type;location;lat;lon;timestamp;temperature;humidity
7204;DHT22;3643;52.460;13.322;2024-03-02T00:01:10;8.20;99.90
7204;DHT22;3643;52.460;13.322;2024-03-02T00:03:38;8.20;99.90
7204;DHT22;3643;52.460;13.322;2024-03-02T00:06:07;8.20;99.90
7204;DHT22;3643;52.460;13.322;2024-03-02T00:08:36;8.20;99.90
7204;DHT22;3643;52.460;13.322;2024-03-02T00:11:04;8.20;99.90
7204;DHT22;3643;52.460;13.322;2024-03-02T00:13:32;8.20;99.90
7204;DHT22;3643;52.460;13.322;2024-03-02T00:16:02;8.20;99.90
7204;DHT22;3643;52.460;13.322;2024-03-02T00:18:35;8.20;99.90
7204;DHT22;3643;52.460;13.322;2024-03-02T00:21:06;8.20;99.90
7204;DHT22;3643;52.460;13.322;2024-03-02T00:23:36;8.20;99.90
7204;DHT22;3643;52.460;13.322;2024-03-02T00:26:06;8.20;99.90
7204;DHT22;3643;52.460;13.322;2024-03-02T00:28:36;8.20;99.90
7204;DHT22;3643;52.460;13.322;2024-03-02T00:31:06;8.20;99.90
7204;DHT22;3643;52.460;13.322;2024-03-02T00:33:38;8.20;99.90
7204;DHT22;3643;52.460;13.322;2024-03-02T00:36:08;8.20;99.90
7204;DHT22;3643;52.460;13.322;2024-03-02T00:38:44;8.20;99.90
7204;DHT22;3643;52.460;13.322;2024-03-02T00:41:19;8.20;99.90
7204;DHT22;3643;52.460;13.322;2024-03-02T00:43:57;8.20;99.90
7204;DHT22;3643;52.460;13.322;2024-03-02T00:46:27;8.20;99.90
7204;DHT22;3643;52.460;13.322;2024-03-02T00:49:00;8.30;99.90
7204;DHT22;3643;52.460;13.322;2024-03-02T00:51:31;8.30;99.90
7204;DHT22;3643;52.460;13.322;2024-03-02T00:54:01;8.20;99.90
7204;DHT22;3643;52.460;13.322;2024-03-02T00:56:31;8.30;99.90
7204;DHT22;3643;52.460;13.322;2024-03-02T00:59:00;8.30;99.90
7204;DHT22;3643;52.460;13.322;2024-03-02T01:01:28;8.30;99.90
7204;DHT22;3643;52.460;13.322;2024-03-02T01:03:56;8.30;99.90
7204;DHT22;3643;52.460;13.322;2024-03-02T01:06:26;8.30;99.90
7204;DHT22;3643;52.460;13.322;2024-03-02T01:08:55;8.30;99.90
7204;DHT22;3643;52.460;13.322;2024-03-02T01:11:23;8.30;99.90
7204;DHT22;3643;52.460;13.322;2024-03-02T01:13:52;8.30;99.90
7204;DHT22;3643;52.460;13.322;2024-03-02T01:16:20;8.40;99.90
7204;DHT22;3643;52.460;13.322;2024-03-02T01:18:48;8.40;99.90
7204;DHT22;3643;52.460;13.322;2024-03-02T01:21:17;8.40;99.90
7204;DHT22;3643;52.460;13.322;2024-03-02T01:23:47;8.40;99.90
7204;DHT22;3643;52.460;13.322;2024-03-02T01:26:15;8.40;99.90
7204;DHT22;3643;52.460;13.322;2024-03-02T01:28:44;8.40;99.90
7204;DHT22;3643;52.460;13.322;2024-03-02T01:31:12;8.40;99.90
7204;DHT22;3643;52.460;13.322;2024-03-02T01:33:40;8.40;99.90
7204;DHT22;3643;52.460;13.322;2024-03-02T01:36:08;8.40;99.90
7204;DHT22;3643;52.460;13.322;2024-03-02T01:38:37;8.40;99.90
7204;DHT22;3643;52.460;13.322;2024-03-02T01:41:06;8.40;99.90
7204;DHT22;3643;52.460;13.322;2024-03-02T01:43:34;8.40;99.90
7204;DHT22;3643;52.460;13.322;2024-03-02T01:46:07;8.40;99.90
7204;DHT22;3643;52.460;13.322;2024-03-02T01:48:36;8.40;99.90
7204;DHT22;3643;52.460;13.322;2024-03-02T01:51:04;8.40;99.90
7204;DHT22;3643;52.460;13.322;2024-03-02T01:53:33;8.40;99.90
7204;DHT22;3643;52.460;13.322;2024-03-02T01:56:02;8.40;99.90
7204;DHT22;3643;52.460;13.322;2024-03-02T01:58:32;8.30;99.90
7204;DHT22;3643;52.460;13.322;2024-03-02T02:01:00;8.30;99.90
7204;DHT22;3643;52.460;13.322;2024-03-02T02:03:28;8.40;99.90
7204;DHT22;3643;52.460;13.322;2024-03-02T02:05:57;8.30;99.90
7204;DHT22;3643;52.460;13.322;2024-03-02T02:08:26;8.30;99.90
7204;DHT22;3643;52.460;13.322;2024-03-02T02:10:54;8.30;99.90
7204;DHT22;3643;52.460;13.322;2024-03-02T02:13:22;8.30;99.90
7204;DHT22;3643;52.460;13.322;2024-03-02T02:15:52;8.20;99.90
7204;DHT22;3643;52.460;13.322;2024-03-02T02:18:21;8.20;99.90
7204;DHT22;3643;52.460;13.322;2024-03-02T02:20:50;8.20;99.90
7204;DHT22;3643;52.460;13.322;2024-03-02T02:23:19;8.20;99.90
7204;DHT22;3643;52.460;13.322;2024-03-02T02:25:47;8.30;99.90
7204;DHT22;3643;52.460;13.322;2024-03-02T02:28:15;8.20;99.90
7204;DHT22;3643;52.460;13.322;2024-03-02T02:30:44;8.20;99.90
7204;DHT22;3643;52.460;13.322;2024-03-02T02:33:12;8.20;99.90
7204;DHT22;3643;52.460;13.322;2024-03-02T02:35:40;8.20;99.90
7204;DHT22;3643;52.460;13.322;2024-03-02T02:38:09;8.20;99.90
7204;DHT22;3643;52.460;13.322;2024-03-02T02:40:38;8.20;99.90
7204;DHT22;3643;52.460;13.322;2024-03-02T02:43:06;8.20;99.90
7204;DHT22;3643;52.460;13.322;2024-03-02T02:45:35;8.20;99.90
7204;DHT22;3643;52.460;13.322;2024-03-02T02:48:03;8.20;99.90
7204;DHT22;3643;52.460;13.322;2024-03-02T02:50:32;8.30;99.90
7204;DHT22;3643;52.460;13.322;2024-03-02T02:53:00;8.20;99.90
7204;DHT22;3643;52.460;13.322;2024-03-02T02:55:29;8.20;99.90
7204;DHT22;3643;52.460;13.322;2024-03-02T02:57:58;8.20;99.90
7204;DHT22;3643;52.460;13.322;2024-03-02T03:00:26;8.30;99.90
7204;DHT22;3643;52.460;13.322;2024-03-02T03:02:55;8.30;99.90
7204;DHT22;3643;52.460;13.322;2024-03-02T03:05:23;8.30;99.90
7204;DHT22;3643;52.460;13.322;2024-03-02T03:07:51;8.50;99.90
7204;DHT22;3643;52.460;13.322;2024-03-02T03:10:20;8.30;99.90
7204;DHT22;3643;52.460;13.322;2024-03-02T03:12:50;8.30;99.90
7204;DHT22;3643;52.460;13.322;2024-03-02T03:15:20;8.30;99.90
7204;DHT22;3643;52.460;13.322;2024-03-02T03:17:48;8.30;99.90
7204;DHT22;3643;52.460;13.322;2024-03-02T03:20:18;8.30;99.90
7204;DHT22;3643;52.460;13.322;2024-03-02T03:22:48;8.40;99.90
7204;DHT22;3643;52.460;13.322;2024-03-02T03:25:16;8.40;99.90
7204;DHT22;3643;52.460;13.322;2024-03-02T03:27:44;8.40;99.90
7204;DHT22;3643;52.460;13.322;2024-03-02T03:30:13;8.50;99.90
7204;DHT22;3643;52.460;13.322;2024-03-02T03:32:43;8.40;99.90
7204;DHT22;3643;52.460;13.322;2024-03-02T03:35:11;8.40;99.90
7204;DHT22;3643;52.460;13.322;2024-03-02T03:37:41;8.40;99.90
7204;DHT22;3643;52.460;13.322;2024-03-02T03:40:10;8.40;99.90
7204;DHT22;3643;52.460;13.322;2024-03-02T03:42:38;8.40;99.90
7204;DHT22;3643;52.460;13.322;2024-03-02T03:45:07;8.50;99.90
7204;DHT22;3643;52.460;13.322;2024-03-02T03:47:35;8.40;99.90
7204;DHT22;3643;52.460;13.322;2024-03-02T03:50:06;8.50;99.90
7204;DHT22;3643;52.460;13.322;2024-03-02T03:52:34;8.50;99.90
7204;DHT22;3643;52.460;13.322;2024-03-02T03:55:03;8.40;99.90
7204;DHT22;3643;52.460;13.322;2024-03-02T03:57:32;8.50;99.90
7204;DHT22;3643;52.460;13.322;2024-03-02T04:00:00;8.50;99.90
7204;DHT22;3643;52.460;13.322;2024-03-02T04:02:28;8.50;99.90
7204;DHT22;3643;52.460;13.322;2024-03-02T04:04:56;8.50;99.90
7204;DHT22;3643;52.460;13.322;2024-03-02T04:07:25;8.40;99.90
7204;DHT22;3643;52.460;13.322;2024-03-02T04:09:53;8.40;99.90
7204;DHT22;3643;52.460;13.322;2024-03-02T04:12:21;8.40;99.90
7204;DHT22;3643;52.460;13.322;2024-03-02T04:14:50;8.40;99.90
7204;DHT22;3643;52.460;13.322;2024-03-02T04:17:18;8.40;99.90
7204;DHT22;3643;52.460;13.322;2024-03-02T04:19:46;8.40;99.90
7204;DHT22;3643;52.460;13.322;2024-03-02T04:22:14;8.40;99.90
7204;DHT22;3643;52.460;13.322;2024-03-02T04:24:52;8.40;99.90
7204;DHT22;3643;52.460;13.322;2024-03-02T04:27:20;8.40;99.90
7204;DHT22;3643;52.460;13.322;2024-03-02T04:29:48;8.40;99.90
7204;DHT22;3643;52.460;13.322;2024-03-02T04:32:16;8.40;99.90
7204;DHT22;3643;52.460;13.322;2024-03-02T04:34:46;8.40;99.90
7204;DHT22;3643;52.460;13.322;2024-03-02T04:37:14;8.40;99.90
7204;DHT22;3643;52.460;13.322;2024-03-02T04:39:42;8.50;99.90
7204;DHT22;3643;52.460;13.322;2024-03-02T04:42:12;8.50;99.90
7204;DHT22;3643;52.460;13.322;2024-03-02T04:44:40;8.50;99.90
7204;DHT22;3643;52.460;13.322;2024-03-02T04:47:08;8.40;99.90
7204;DHT22;3643;52.460;13.322;2024-03-02T04:49:36;8.40;99.90
7204;DHT22;3643;52.460;13.322;2024-03-02T04:52:04;8.40;99.90
7204;DHT22;3643;52.460;13.322;2024-03-02T04:54:33;8.50;99.90
7204;DHT22;3643;52.460;13.322;2024-03-02T04:57:23;8.40;99.90
7204;DHT22;3643;52.460;13.322;2024-03-02T04:59:51;8.50;99.90
7204;DHT22;3643;52.460;13.322;2024-03-02T05:02:19;8.40;99.90
7204;DHT22;3643;52.460;13.322;2024-03-02T05:04:47;8.40;99.90
7204;DHT22;3643;52.460;13.322;2024-03-02T05:07:16;8.40;99.90
7204;DHT22;3643;52.460;13.322;2024-03-02T05:09:43;8.40;99.90
7204;DHT22;3643;52.460;13.322;2024-03-02T05:12:12;8.40;99.90
7204;DHT22;3643;52.460;13.322;2024-03-02T05:15:03;8.40;99.90
7204;DHT22;3643;52.460;13.322;2024-03-02T05:17:32;8.30;99.90
7204;DHT22;3643;52.460;13.322;2024-03-02T05:20:00;8.30;99.90
7204;DHT22;3643;52.460;13.322;2024-03-02T05:22:28;8.30;99.90
7204;DHT22;3643;52.460;13.322;2024-03-02T05:24:56;8.30;99.90
7204;DHT22;3643;52.460;13.322;2024-03-02T05:27:26;8.30;99.90
7204;DHT22;3643;52.460;13.322;2024-03-02T05:29:54;8.30;99.90
7204;DHT22;3643;52.460;13.322;2024-03-02T05:32:23;8.20;99.90
7204;DHT22;3643;52.460;13.322;2024-03-02T05:34:51;8.30;99.90
7204;DHT22;3643;52.460;13.322;2024-03-02T05:37:19;8.30;99.90
7204;DHT22;3643;52.460;13.322;2024-03-02T05:39:47;8.20;99.90
7204;DHT22;3643;52.460;13.322;2024-03-02T05:42:16;8.20;99.90
7204;DHT22;3643;52.460;13.322;2024-03-02T05:44:44;8.20;99.90
7204;DHT22;3643;52.460;13.322;2024-03-02T05:47:12;8.20;99.90
7204;DHT22;3643;52.460;13.322;2024-03-02T05:49:42;8.10;99.90
7204;DHT22;3643;52.460;13.322;2024-03-02T05:52:10;8.10;99.90
7204;DHT22;3643;52.460;13.322;2024-03-02T05:54:39;8.10;99.90
7204;DHT22;3643;52.460;13.322;2024-03-02T05:57:07;8.10;99.90
7204;DHT22;3643;52.460;13.322;2024-03-02T05:59:58;8.10;99.90
7204;DHT22;3643;52.460;13.322;2024-03-02T06:02:26;8.10;99.90
7204;DHT22;3643;52.460;13.322;2024-03-02T06:04:56;8.10;99.90
7204;DHT22;3643;52.460;13.322;2024-03-02T06:07:24;8.00;99.90
7204;DHT22;3643;52.460;13.322;2024-03-02T06:09:52;8.10;99.90
7204;DHT22;3643;52.460;13.322;2024-03-02T06:12:20;8.10;99.90
7204;DHT22;3643;52.460;13.322;2024-03-02T06:14:48;8.10;99.90
7204;DHT22;3643;52.460;13.322;2024-03-02T06:17:16;8.10;99.90
7204;DHT22;3643;52.460;13.322;2024-03-02T06:19:45;8.10;99.90
7204;DHT22;3643;52.460;13.322;2024-03-02T06:22:14;8.10;99.90
7204;DHT22;3643;52.460;13.322;2024-03-02T06:24:42;8.10;99.90
7204;DHT22;3643;52.460;13.322;2024-03-02T06:27:11;8.10;99.90
7204;DHT22;3643;52.460;13.322;2024-03-02T06:29:39;8.20;99.90
7204;DHT22;3643;52.460;13.322;2024-03-02T06:32:08;8.20;99.90
7204;DHT22;3643;52.460;13.322;2024-03-02T06:34:36;8.20;99.90
7204;DHT22;3643;52.460;13.322;2024-03-02T06:37:04;8.20;99.90
7204;DHT22;3643;52.460;13.322;2024-03-02T06:39:34;8.20;99.90
7204;DHT22;3643;52.460;13.322;2024-03-02T06:42:03;8.20;99.90
7204;DHT22;3643;52.460;13.322;2024-03-02T06:44:31;8.10;99.90
7204;DHT22;3643;52.460;13.322;2024-03-02T06:46:59;8.20;99.90
7204;DHT22;3643;52.460;13.322;2024-03-02T06:49:27;8.20;99.90
7204;DHT22;3643;52.460;13.322;2024-03-02T06:51:55;8.20;99.90
7204;DHT22;3643;52.460;13.322;2024-03-02T06:54:23;8.10;99.90
7204;DHT22;3643;52.460;13.322;2024-03-02T06:56:52;8.10;99.90
7204;DHT22;3643;52.460;13.322;2024-03-02T06:59:20;8.10;99.90
7204;DHT22;3643;52.460;13.322;2024-03-02T07:01:48;8.10;99.90
7204;DHT22;3643;52.460;13.322;2024-03-02T07:04:16;8.10;99.90
7204;DHT22;3643;52.460;13.322;2024-03-02T07:06:44;8.20;99.90
7204;DHT22;3643;52.460;13.322;2024-03-02T07:09:12;8.30;99.90
7204;DHT22;3643;52.460;13.322;2024-03-02T07:11:40;8.30;99.90
7204;DHT22;3643;52.460;13.322;2024-03-02T07:14:10;8.30;99.90
7204;DHT22;3643;52.460;13.322;2024-03-02T07:16:38;8.60;99.90
7204;DHT22;3643;52.460;13.322;2024-03-02T07:19:07;8.30;99.90
7204;DHT22;3643;52.460;13.322;2024-03-02T07:21:35;8.30;99.90
7204;DHT22;3643;52.460;13.322;2024-03-02T07:24:03;8.20;99.90
7204;DHT22;3643;52.460;13.322;2024-03-02T07:26:32;8.30;99.90
7204;DHT22;3643;52.460;13.322;2024-03-02T07:29:03;8.50;99.90
7204;DHT22;3643;52.460;13.322;2024-03-02T07:31:32;8.40;99.90
7204;DHT22;3643;52.460;13.322;2024-03-02T07:34:00;8.20;99.90
7204;DHT22;3643;52.460;13.322;2024-03-02T07:36:28;8.40;99.90
7204;DHT22;3643;52.460;13.322;2024-03-02T07:38:56;8.50;99.90
7204;DHT22;3643;52.460;13.322;2024-03-02T07:41:25;8.20;99.90
7204;DHT22;3643;52.460;13.322;2024-03-02T07:43:53;8.20;99.90
7204;DHT22;3643;52.460;13.322;2024-03-02T07:46:21;8.20;99.90
7204;DHT22;3643;52.460;13.322;2024-03-02T07:48:50;8.30;99.90
7204;DHT22;3643;52.460;13.322;2024-03-02T07:51:19;8.30;99.90
7204;DHT22;3643;52.460;13.322;2024-03-02T07:53:47;8.30;99.90
7204;DHT22;3643;52.460;13.322;2024-03-02T07:56:16;8.20;99.90
7204;DHT22;3643;52.460;13.322;2024-03-02T07:58:48;8.20;99.90
7204;DHT22;3643;52.460;13.322;2024-03-02T08:01:17;8.20;99.90
7204;DHT22;3643;52.460;13.322;2024-03-02T08:03:45;8.30;99.90
7204;DHT22;3643;52.460;13.322;2024-03-02T08:06:16;8.30;99.90
7204;DHT22;3643;52.460;13.322;2024-03-02T08:08:44;8.40;99.90
7204;DHT22;3643;52.460;13.322;2024-03-02T08:11:12;8.40;99.90
7204;DHT22;3643;52.460;13.322;2024-03-02T08:13:40;8.50;99.90
7204;DHT22;3643;52.460;13.322;2024-03-02T08:16:08;8.50;99.90
7204;DHT22;3643;52.460;13.322;2024-03-02T08:18:36;8.50;99.90
7204;DHT22;3643;52.460;13.322;2024-03-02T08:21:04;8.50;99.90
7204;DHT22;3643;52.460;13.322;2024-03-02T08:23:36;8.50;99.90
7204;DHT22;3643;52.460;13.322;2024-03-02T08:26:07;8.60;99.90
7204;DHT22;3643;52.460;13.322;2024-03-02T08:28:35;8.80;99.90
7204;DHT22;3643;52.460;13.322;2024-03-02T08:31:04;8.70;99.90
7204;DHT22;3643;52.460;13.322;2024-03-02T08:33:32;8.80;99.90
7204;DHT22;3643;52.460;13.322;2024-03-02T08:36:04;9.00;99.90
7204;DHT22;3643;52.460;13.322;2024-03-02T08:38:32;9.20;99.90
7204;DHT22;3643;52.460;13.322;2024-03-02T08:41:02;9.20;99.90
7204;DHT22;3643;52.460;13.322;2024-03-02T08:43:31;9.10;99.90
7204;DHT22;3643;52.460;13.322;2024-03-02T08:45:59;9.00;99.90
7204;DHT22;3643;52.460;13.322;2024-03-02T08:48:27;9.10;99.90
7204;DHT22;3643;52.460;13.322;2024-03-02T08:50:55;9.30;99.90
7204;DHT22;3643;52.460;13.322;2024-03-02T08:53:24;9.30;99.90
7204;DHT22;3643;52.460;13.322;2024-03-02T08:55:52;9.30;99.90
7204;DHT22;3643;52.460;13.322;2024-03-02T08:58:26;9.20;99.90
7204;DHT22;3643;52.460;13.322;2024-03-02T09:00:54;9.20;99.90
7204;DHT22;3643;52.460;13.322;2024-03-02T09:03:22;9.10;99.90
7204;DHT22;3643;52.460;13.322;2024-03-02T09:05:50;9.10;99.90
7204;DHT22;3643;52.460;13.322;2024-03-02T09:08:18;9.00;99.90
7204;DHT22;3643;52.460;13.322;2024-03-02T09:10:46;8.90;99.90
7204;DHT22;3643;52.460;13.322;2024-03-02T09:13:14;9.00;99.90
7204;DHT22;3643;52.460;13.322;2024-03-02T09:15:43;9.00;99.90
7204;DHT22;3643;52.460;13.322;2024-03-02T09:18:11;9.00;99.90
7204;DHT22;3643;52.460;13.322;2024-03-02T09:20:42;9.00;99.90
7204;DHT22;3643;52.460;13.322;2024-03-02T09:23:10;9.00;99.90
7204;DHT22;3643;52.460;13.322;2024-03-02T09:25:39;9.10;99.90
7204;DHT22;3643;52.460;13.322;2024-03-02T09:28:07;9.00;99.90
7204;DHT22;3643;52.460;13.322;2024-03-02T09:30:35;9.10;99.90
7204;DHT22;3643;52.460;13.322;2024-03-02T09:33:05;9.10;99.90
7204;DHT22;3643;52.460;13.322;2024-03-02T09:35:35;9.10;99.90
7204;DHT22;3643;52.460;13.322;2024-03-02T09:38:04;9.20;99.90
7204;DHT22;3643;52.460;13.322;2024-03-02T09:40:32;9.20;99.90
7204;DHT22;3643;52.460;13.322;2024-03-02T09:43:01;9.20;99.90
7204;DHT22;3643;52.460;13.322;2024-03-02T09:45:30;9.40;99.90
7204;DHT22;3643;52.460;13.322;2024-03-02T09:47:58;9.50;99.90
7204;DHT22;3643;52.460;13.322;2024-03-02T09:50:28;9.60;99.90
7204;DHT22;3643;52.460;13.322;2024-03-02T09:52:57;9.80;99.90
7204;DHT22;3643;52.460;13.322;2024-03-02T09:55:25;10.10;99.90
7204;DHT22;3643;52.460;13.322;2024-03-02T09:57:53;9.70;99.90
7204;DHT22;3643;52.460;13.322;2024-03-02T10:00:22;9.70;99.90
7204;DHT22;3643;52.460;13.322;2024-03-02T10:02:52;9.80;99.90
7204;DHT22;3643;52.460;13.322;2024-03-02T10:05:25;9.90;99.90
7204;DHT22;3643;52.460;13.322;2024-03-02T10:08:03;10.10;99.90
7204;DHT22;3643;52.460;13.322;2024-03-02T10:10:35;10.30;99.90
7204;DHT22;3643;52.460;13.322;2024-03-02T10:13:07;10.40;99.90
7204;DHT22;3643;52.460;13.322;2024-03-02T10:15:37;10.80;99.90
7204;DHT22;3643;52.460;13.322;2024-03-02T10:18:09;10.90;99.90
7204;DHT22;3643;52.460;13.322;2024-03-02T10:20:39;11.00;99.90
7204;DHT22;3643;52.460;13.322;2024-03-02T10:23:12;11.10;99.90
7204;DHT22;3643;52.460;13.322;2024-03-02T10:25:41;11.20;99.90
7204;DHT22;3643;52.460;13.322;2024-03-02T10:28:23;11.10;99.90
7204;DHT22;3643;52.460;13.322;2024-03-02T10:30:52;11.00;99.90
7204;DHT22;3643;52.460;13.322;2024-03-02T10:33:20;11.00;99.90
7204;DHT22;3643;52.460;13.322;2024-03-02T10:35:50;11.00;99.90
7204;DHT22;3643;52.460;13.322;2024-03-02T10:38:19;11.10;99.90
7204;DHT22;3643;52.460;13.322;2024-03-02T10:40:48;11.30;99.90
7204;DHT22;3643;52.460;13.322;2024-03-02T10:43:17;11.50;99.90
7204;DHT22;3643;52.460;13.322;2024-03-02T10:45:49;11.30;99.90
7204;DHT22;3643;52.460;13.322;2024-03-02T10:48:18;11.10;99.90
7204;DHT22;3643;52.460;13.322;2024-03-02T10:50:48;11.20;99.90
7204;DHT22;3643;52.460;13.322;2024-03-02T10:53:19;11.00;99.90
7204;DHT22;3643;52.460;13.322;2024-03-02T10:55:54;11.00;99.90
7204;DHT22;3643;52.460;13.322;2024-03-02T10:58:32;11.10;99.90
7204;DHT22;3643;52.460;13.322;2024-03-02T11:01:03;11.30;99.90
7204;DHT22;3643;52.460;13.322;2024-03-02T11:03:33;11.50;99.90
7204;DHT22;3643;52.460;13.322;2024-03-02T11:06:07;12.00;99.90
7204;DHT22;3643;52.460;13.322;2024-03-02T11:08:38;12.30;99.90
7204;DHT22;3643;52.460;13.322;2024-03-02T11:11:15;12.10;99.90
7204;DHT22;3643;52.460;13.322;2024-03-02T11:13:49;11.90;99.90
7204;DHT22;3643;52.460;13.322;2024-03-02T11:16:22;11.70;99.90
7204;DHT22;3643;52.460;13.322;2024-03-02T11:18:54;11.60;99.90
7204;DHT22;3643;52.460;13.322;2024-03-02T11:21:22;11.60;99.90
7204;DHT22;3643;52.460;13.322;2024-03-02T11:23:52;11.60;99.90
7204;DHT22;3643;52.460;13.322;2024-03-02T11:26:21;11.80;99.90
7204;DHT22;3643;52.460;13.322;2024-03-02T11:28:51;12.30;99.90
7204;DHT22;3643;52.460;13.322;2024-03-02T11:31:19;12.30;99.90
7204;DHT22;3643;52.460;13.322;2024-03-02T11:33:47;12.40;99.90
7204;DHT22;3643;52.460;13.322;2024-03-02T11:36:16;12.30;99.90
7204;DHT22;3643;52.460;13.322;2024-03-02T11:38:45;12.40;99.90
7204;DHT22;3643;52.460;13.322;2024-03-02T11:41:15;12.20;99.90
7204;DHT22;3643;52.460;13.322;2024-03-02T11:43:44;12.30;99.90
7204;DHT22;3643;52.460;13.322;2024-03-02T11:46:15;12.30;99.90
7204;DHT22;3643;52.460;13.322;2024-03-02T11:48:43;12.70;99.90
7204;DHT22;3643;52.460;13.322;2024-03-02T11:51:11;13.00;99.90
7204;DHT22;3643;52.460;13.322;2024-03-02T11:53:39;13.00;99.90
7204;DHT22;3643;52.460;13.322;2024-03-02T11:56:09;13.10;99.90
7204;DHT22;3643;52.460;13.322;2024-03-02T11:58:41;13.40;99.90
7204;DHT22;3643;52.460;13.322;2024-03-02T12:01:10;13.40;99.90
7204;DHT22;3643;52.460;13.322;2024-03-02T12:03:40;13.20;99.90
7204;DHT22;3643;52.460;13.322;2024-03-02T12:06:08;13.30;99.90
7204;DHT22;3643;52.460;13.322;2024-03-02T12:08:37;13.50;99.90
7204;DHT22;3643;52.460;13.322;2024-03-02T12:11:06;13.70;99.90
7204;DHT22;3643;52.460;13.322;2024-03-02T12:13:34;14.00;99.90
7204;DHT22;3643;52.460;13.322;2024-03-02T12:16:05;14.20;99.90
7204;DHT22;3643;52.460;13.322;2024-03-02T12:18:33;14.40;99.90
7204;DHT22;3643;52.460;13.322;2024-03-02T12:21:03;14.60;99.90
7204;DHT22;3643;52.460;13.322;2024-03-02T12:23:34;14.70;99.90
7204;DHT22;3643;52.460;13.322;2024-03-02T12:26:03;14.60;99.90
7204;DHT22;3643;52.460;13.322;2024-03-02T12:28:32;14.20;99.90
7204;DHT22;3643;52.460;13.322;2024-03-02T12:31:01;14.00;99.90
7204;DHT22;3643;52.460;13.322;2024-03-02T12:33:31;13.70;99.90
7204;DHT22;3643;52.460;13.322;2024-03-02T12:36:00;13.60;99.90
7204;DHT22;3643;52.460;13.322;2024-03-02T12:38:29;13.30;99.90
7204;DHT22;3643;52.460;13.322;2024-03-02T12:40:57;13.20;99.90
7204;DHT22;3643;52.460;13.322;2024-03-02T12:43:30;13.20;99.90
7204;DHT22;3643;52.460;13.322;2024-03-02T12:45:58;13.30;99.90
7204;DHT22;3643;52.460;13.322;2024-03-02T12:48:27;13.20;99.90
7204;DHT22;3643;52.460;13.322;2024-03-02T12:50:57;13.50;99.90
7204;DHT22;3643;52.460;13.322;2024-03-02T12:53:25;13.70;99.90
7204;DHT22;3643;52.460;13.322;2024-03-02T12:55:54;13.90;99.90
7204;DHT22;3643;52.460;13.322;2024-03-02T12:58:23;14.10;99.90
7204;DHT22;3643;52.460;13.322;2024-03-02T13:01:05;13.80;99.90
7204;DHT22;3643;52.460;13.322;2024-03-02T13:03:35;13.40;99.90
7204;DHT22;3643;52.460;13.322;2024-03-02T13:06:06;13.50;99.90
7204;DHT22;3643;52.460;13.322;2024-03-02T13:08:35;13.30;99.90
7204;DHT22;3643;52.460;13.322;2024-03-02T13:11:04;13.70;99.90
7204;DHT22;3643;52.460;13.322;2024-03-02T13:13:33;13.70;99.90
7204;DHT22;3643;52.460;13.322;2024-03-02T13:16:02;13.60;99.90
7204;DHT22;3643;52.460;13.322;2024-03-02T13:18:31;13.60;99.90
7204;DHT22;3643;52.460;13.322;2024-03-02T13:21:01;13.70;99.90
7204;DHT22;3643;52.460;13.322;2024-03-02T13:23:30;13.80;99.90
7204;DHT22;3643;52.460;13.322;2024-03-02T13:26:00;13.70;99.90
7204;DHT22;3643;52.460;13.322;2024-03-02T13:28:28;13.40;99.90
7204;DHT22;3643;52.460;13.322;2024-03-02T13:30:56;13.10;99.90
7204;DHT22;3643;52.460;13.322;2024-03-02T13:33:25;13.00;99.90
7204;DHT22;3643;52.460;13.322;2024-03-02T13:35:53;13.00;99.90
7204;DHT22;3643;52.460;13.322;2024-03-02T13:38:22;13.20;99.90
7204;DHT22;3643;52.460;13.322;2024-03-02T13:40:51;13.40;99.90
7204;DHT22;3643;52.460;13.322;2024-03-02T13:43:20;13.30;99.90
7204;DHT22;3643;52.460;13.322;2024-03-02T13:45:49;13.30;99.90
7204;DHT22;3643;52.460;13.322;2024-03-02T13:48:19;13.30;99.90
7204;DHT22;3643;52.460;13.322;2024-03-02T13:50:48;13.40;99.90
7204;DHT22;3643;52.460;13.322;2024-03-02T13:53:16;13.70;99.90
7204;DHT22;3643;52.460;13.322;2024-03-02T13:55:44;13.90;99.90
7204;DHT22;3643;52.460;13.322;2024-03-02T13:58:14;13.90;99.90
7204;DHT22;3643;52.460;13.322;2024-03-02T14:00:44;13.70;99.90
7204;DHT22;3643;52.460;13.322;2024-03-02T14:03:13;13.80;99.90
7204;DHT22;3643;52.460;13.322;2024-03-02T14:05:43;13.80;99.90
7204;DHT22;3643;52.460;13.322;2024-03-02T14:08:12;13.90;99.90
7204;DHT22;3643;52.460;13.322;2024-03-02T14:10:41;13.90;99.90
7204;DHT22;3643;52.460;13.322;2024-03-02T14:13:10;13.90;99.90
7204;DHT22;3643;52.460;13.322;2024-03-02T14:15:40;14.00;99.90
7204;DHT22;3643;52.460;13.322;2024-03-02T14:18:08;14.00;99.90
7204;DHT22;3643;52.460;13.322;2024-03-02T14:20:37;13.70;99.90
7204;DHT22;3643;52.460;13.322;2024-03-02T14:23:08;13.60;99.90
7204;DHT22;3643;52.460;13.322;2024-03-02T14:25:38;13.70;99.90
7204;DHT22;3643;52.460;13.322;2024-03-02T14:28:06;13.50;99.90
7204;DHT22;3643;52.460;13.322;2024-03-02T14:30:56;13.50;99.90
7204;DHT22;3643;52.460;13.322;2024-03-02T14:33:24;13.50;99.90
7204;DHT22;3643;52.460;13.322;2024-03-02T14:35:52;13.50;99.90
7204;DHT22;3643;52.460;13.322;2024-03-02T14:38:21;13.50;99.90
7204;DHT22;3643;52.460;13.322;2024-03-02T14:40:49;13.50;99.90
7204;DHT22;3643;52.460;13.322;2024-03-02T14:43:20;13.40;99.90
7204;DHT22;3643;52.460;13.322;2024-03-02T14:45:48;13.50;99.90
7204;DHT22;3643;52.460;13.322;2024-03-02T14:48:18;13.30;99.90
7204;DHT22;3643;52.460;13.322;2024-03-02T14:50:47;13.30;99.90
7204;DHT22;3643;52.460;13.322;2024-03-02T14:53:15;13.20;99.90
7204;DHT22;3643;52.460;13.322;2024-03-02T14:55:43;13.20;99.90
7204;DHT22;3643;52.460;13.322;2024-03-02T14:58:12;13.20;99.90
7204;DHT22;3643;52.460;13.322;2024-03-02T15:00:40;13.10;99.90
7204;DHT22;3643;52.460;13.322;2024-03-02T15:03:09;13.10;99.90
7204;DHT22;3643;52.460;13.322;2024-03-02T15:05:40;13.10;99.90
7204;DHT22;3643;52.460;13.322;2024-03-02T15:08:08;13.10;99.90
7204;DHT22;3643;52.460;13.322;2024-03-02T15:10:36;13.10;99.90
7204;DHT22;3643;52.460;13.322;2024-03-02T15:13:04;13.00;99.90
7204;DHT22;3643;52.460;13.322;2024-03-02T15:15:33;13.00;99.90
7204;DHT22;3643;52.460;13.322;2024-03-02T15:18:02;13.00;99.90
7204;DHT22;3643;52.460;13.322;2024-03-02T15:20:32;13.00;99.90
7204;DHT22;3643;52.460;13.322;2024-03-02T15:23:02;13.10;99.90
7204;DHT22;3643;52.460;13.322;2024-03-02T15:25:31;13.10;99.90
7204;DHT22;3643;52.460;13.322;2024-03-02T15:27:59;13.10;99.90
7204;DHT22;3643;52.460;13.322;2024-03-02T15:30:27;13.10;99.90
7204;DHT22;3643;52.460;13.322;2024-03-02T15:32:56;13.10;99.90
7204;DHT22;3643;52.460;13.322;2024-03-02T15:35:24;13.10;99.90
7204;DHT22;3643;52.460;13.322;2024-03-02T15:37:52;13.10;99.90
7204;DHT22;3643;52.460;13.322;2024-03-02T15:40:22;13.10;99.90
7204;DHT22;3643;52.460;13.322;2024-03-02T15:42:50;13.10;99.90
7204;DHT22;3643;52.460;13.322;2024-03-02T15:45:18;13.00;99.90
7204;DHT22;3643;52.460;13.322;2024-03-02T15:47:46;13.00;99.90
7204;DHT22;3643;52.460;13.322;2024-03-02T15:50:15;13.00;99.90
7204;DHT22;3643;52.460;13.322;2024-03-02T15:52:43;12.90;99.90
7204;DHT22;3643;52.460;13.322;2024-03-02T15:55:12;12.80;99.90
7204;DHT22;3643;52.460;13.322;2024-03-02T15:57:42;12.80;99.90
7204;DHT22;3643;52.460;13.322;2024-03-02T16:00:11;12.70;99.90
7204;DHT22;3643;52.460;13.322;2024-03-02T16:02:40;12.70;99.90
7204;DHT22;3643;52.460;13.322;2024-03-02T16:05:09;12.60;99.90
7204;DHT22;3643;52.460;13.322;2024-03-02T16:07:37;12.50;99.90